createdAt,value
2023-07-21T00:00:19.692Z,19.55
2023-07-21T00:02:51.808Z,20.35
2023-07-21T00:05:19.345Z,20.17
2023-07-21T00:07:49.407Z,18.77
2023-07-21T00:10:17.208Z,16.65
2023-07-21T00:12:49.660Z,13.70
2023-07-21T00:15:19.343Z,11.30
2023-07-21T00:17:48.727Z,10.40
2023-07-21T00:20:26.198Z,10.23
2023-07-21T00:22:53.579Z,10.15
2023-07-21T00:25:21.070Z,10.07
2023-07-21T00:27:49.064Z,9.77
2023-07-21T00:30:18.196Z,10.25
2023-07-21T00:32:46.328Z,9.90
2023-07-21T00:35:14.014Z,10.23
2023-07-21T00:37:42.525Z,9.23
2023-07-21T00:40:11.520Z,10.73
2023-07-21T00:42:40.440Z,10.45
2023-07-21T00:45:08.156Z,9.82
2023-07-21T00:47:37.680Z,10.68
2023-07-21T00:50:05.979Z,10.60
2023-07-21T00:52:34.115Z,10.85
2023-07-21T00:55:02.581Z,11.13
2023-07-21T00:57:33.208Z,11.02
2023-07-21T01:00:01.922Z,10.27
2023-07-21T01:02:31.231Z,10.03
2023-07-21T01:05:02.560Z,10.70
2023-07-21T01:07:32.241Z,10.65
2023-07-21T01:10:00.297Z,10.50
2023-07-21T01:12:28.113Z,9.73
2023-07-21T01:14:55.726Z,10.88
2023-07-21T01:17:24.407Z,10.05
2023-07-21T01:19:52.275Z,9.97
2023-07-21T01:22:19.976Z,9.77
2023-07-21T01:24:50.403Z,10.35
2023-07-21T01:27:23.537Z,10.70
2023-07-21T01:29:53.144Z,10.05
2023-07-21T01:32:26.849Z,11.10
2023-07-21T01:34:56.477Z,10.88
2023-07-21T01:37:25.786Z,10.85
2023-07-21T01:39:57.471Z,11.05
2023-07-21T01:42:30.804Z,11.45
2023-07-21T01:44:58.274Z,12.27
2023-07-21T01:47:25.961Z,12.30
2023-07-21T01:49:53.410Z,14.05
2023-07-21T01:52:20.828Z,13.73
2023-07-21T01:54:53.644Z,14.57
2023-07-21T01:57:32.753Z,13.02
2023-07-21T02:00:02.215Z,12.85
2023-07-21T02:02:46.000Z,14.05
2023-07-21T02:05:25.349Z,13.38
2023-07-21T02:07:55.873Z,13.25
2023-07-21T02:10:23.755Z,13.48
2023-07-21T02:13:07.472Z,13.80
2023-07-21T02:15:35.447Z,13.98
2023-07-21T02:18:03.080Z,12.88
2023-07-21T02:20:30.603Z,13.52
2023-07-21T02:22:58.093Z,18.63
2023-07-21T02:25:25.824Z,13.88
2023-07-21T02:27:55.464Z,12.52
2023-07-21T02:30:22.882Z,12.85
2023-07-21T02:32:50.307Z,13.88
2023-07-21T02:35:17.627Z,12.80
2023-07-21T02:37:47.208Z,13.15
2023-07-21T02:40:15.837Z,11.95
2023-07-21T02:42:44.505Z,12.80
2023-07-21T02:45:11.904Z,12.13
2023-07-21T02:47:40.428Z,12.73
2023-07-21T02:50:11.253Z,12.80
2023-07-21T02:52:40.317Z,12.50
2023-07-21T02:55:08.606Z,12.25
2023-07-21T02:57:37.752Z,13.43
2023-07-21T03:00:06.938Z,12.77
2023-07-21T03:02:43.862Z,12.65
2023-07-21T03:05:11.705Z,13.55
2023-07-21T03:07:40.542Z,13.52
2023-07-21T03:10:12.495Z,12.38
2023-07-21T03:12:40.805Z,13.55
2023-07-21T03:15:18.460Z,13.48
2023-07-21T03:18:00.241Z,14.57
2023-07-21T03:20:31.369Z,15.70
2023-07-21T03:22:58.899Z,16.13
2023-07-21T03:25:26.621Z,17.00
2023-07-21T03:27:54.001Z,16.20
2023-07-21T03:30:23.539Z,16.08
2023-07-21T03:33:11.424Z,21.75
2023-07-21T03:35:39.769Z,26.27
2023-07-21T03:38:07.791Z,26.52
2023-07-21T03:40:37.166Z,27.63
2023-07-21T03:43:05.842Z,29.80
2023-07-21T03:45:34.197Z,32.05
2023-07-21T03:48:02.113Z,34.42
2023-07-21T03:50:31.901Z,31.20
2023-07-21T03:52:59.207Z,27.48
2023-07-21T03:55:26.565Z,24.40
2023-07-21T03:57:53.908Z,23.65
2023-07-21T04:00:21.443Z,20.70
2023-07-21T04:02:49.045Z,18.02
2023-07-21T04:05:16.861Z,17.17
2023-07-21T04:07:44.953Z,15.52
2023-07-21T04:10:12.293Z,12.90
2023-07-21T04:12:40.142Z,11.20
2023-07-21T04:15:08.470Z,9.52
2023-07-21T04:17:36.074Z,9.65
2023-07-21T04:20:05.400Z,8.93
2023-07-21T04:22:34.192Z,9.10
2023-07-21T04:25:01.835Z,7.20
2023-07-21T04:27:30.202Z,7.13
2023-07-21T04:29:57.947Z,7.82
2023-07-21T04:32:26.319Z,8.18
2023-07-21T04:34:57.144Z,7.03
2023-07-21T04:37:24.716Z,7.20
2023-07-21T04:39:55.288Z,6.78
2023-07-21T04:42:23.013Z,6.90
2023-07-21T04:44:50.484Z,6.72
2023-07-21T04:47:19.335Z,14.27
2023-07-21T04:50:20.732Z,6.60
2023-07-21T04:52:49.000Z,6.68
2023-07-21T04:55:16.570Z,6.20
2023-07-21T04:57:44.586Z,6.00
2023-07-21T05:00:13.464Z,6.15
2023-07-21T05:02:42.563Z,6.82
2023-07-21T05:05:10.280Z,7.00
2023-07-21T05:07:45.218Z,6.60
2023-07-21T05:10:12.880Z,8.75
2023-07-21T05:12:41.986Z,9.80
2023-07-21T05:15:24.134Z,11.57
2023-07-21T05:17:59.662Z,12.05
2023-07-21T05:20:42.007Z,13.52
2023-07-21T05:23:17.974Z,13.85
2023-07-21T05:26:05.709Z,15.32
2023-07-21T05:28:37.313Z,14.55
2023-07-21T05:31:04.968Z,14.07
2023-07-21T05:33:48.320Z,13.18
2023-07-21T05:36:16.605Z,12.77
2023-07-21T05:38:44.524Z,11.98
2023-07-21T05:41:12.512Z,11.93
2023-07-21T05:43:40.589Z,12.77
2023-07-21T05:46:09.063Z,12.45
2023-07-21T05:48:43.186Z,12.75
2023-07-21T05:51:14.391Z,11.32
2023-07-21T05:53:45.249Z,10.88
2023-07-21T05:56:16.578Z,10.57
2023-07-21T05:59:13.683Z,11.25
2023-07-21T06:01:42.430Z,10.97
2023-07-21T06:04:10.318Z,10.68
2023-07-21T06:06:39.417Z,9.45
2023-07-21T06:09:40.221Z,10.40
2023-07-21T06:12:36.604Z,16.25
2023-07-21T06:15:20.929Z,10.95
2023-07-21T06:17:59.520Z,13.38
2023-07-21T06:20:30.166Z,11.77
2023-07-21T06:22:59.006Z,11.77
2023-07-21T06:25:28.475Z,10.30
2023-07-21T06:28:02.386Z,10.27
2023-07-21T06:30:31.100Z,10.93
2023-07-21T06:32:59.034Z,11.10
2023-07-21T06:35:38.822Z,11.00
2023-07-21T06:38:38.427Z,10.15
2023-07-21T06:41:15.826Z,9.88
2023-07-21T06:43:47.138Z,11.48
2023-07-21T06:46:25.973Z,10.20
2023-07-21T06:48:55.122Z,11.15
2023-07-21T06:51:33.599Z,9.73
2023-07-21T06:54:01.043Z,10.38
2023-07-21T06:56:29.409Z,9.70
2023-07-21T06:58:57.031Z,9.55
2023-07-21T07:01:24.821Z,9.93
2023-07-21T07:03:52.855Z,18.52
2023-07-21T07:06:20.539Z,10.35
2023-07-21T07:08:47.977Z,19.95
2023-07-21T07:11:16.232Z,9.50
2023-07-21T07:13:43.633Z,10.48
2023-07-21T07:16:12.849Z,10.93
2023-07-21T07:18:40.819Z,10.63
2023-07-21T07:21:08.415Z,10.38
2023-07-21T07:23:38.364Z,10.43
2023-07-21T07:26:06.447Z,10.73
2023-07-21T07:28:34.505Z,11.07
2023-07-21T07:31:05.653Z,10.23
2023-07-21T07:33:33.844Z,11.18
2023-07-21T07:36:01.622Z,10.75
2023-07-21T07:38:30.479Z,10.80
2023-07-21T07:41:02.535Z,10.95
2023-07-21T07:43:30.541Z,12.20
2023-07-21T07:45:59.033Z,11.90
2023-07-21T07:48:26.824Z,12.27
2023-07-21T07:50:54.885Z,11.95
2023-07-21T07:53:22.621Z,11.65
2023-07-21T07:55:50.266Z,11.65
2023-07-21T07:58:17.857Z,11.48
2023-07-21T08:00:45.906Z,11.05
2023-07-21T08:03:15.419Z,10.55
2023-07-21T08:05:43.006Z,9.20
2023-07-21T08:08:14.175Z,9.18
2023-07-21T08:10:43.072Z,10.82
2023-07-21T08:13:10.623Z,9.82
2023-07-21T08:15:45.468Z,8.65
2023-07-21T08:18:13.566Z,8.45
2023-07-21T08:20:42.272Z,7.90
2023-07-21T08:23:23.471Z,8.60
2023-07-21T08:25:56.481Z,7.82
2023-07-21T08:28:23.981Z,7.72
2023-07-21T08:30:58.773Z,8.73
2023-07-21T08:33:28.713Z,9.05
2023-07-21T08:35:56.308Z,9.32
2023-07-21T08:38:25.598Z,10.50
2023-07-21T08:41:02.310Z,10.13
2023-07-21T08:43:30.507Z,9.65
2023-07-21T08:46:01.746Z,13.30
2023-07-21T08:48:31.519Z,11.55
2023-07-21T08:50:59.917Z,11.05
2023-07-21T08:53:28.090Z,11.73
2023-07-21T08:55:59.889Z,11.20
2023-07-21T08:58:28.613Z,10.70
2023-07-21T09:00:57.603Z,10.13
2023-07-21T09:03:27.719Z,9.20
2023-07-21T09:05:57.802Z,8.52
2023-07-21T09:08:28.576Z,7.10
2023-07-21T09:11:03.457Z,7.30
2023-07-21T09:13:32.248Z,7.63
2023-07-21T09:18:31.253Z,7.07
2023-07-21T09:20:59.144Z,7.50
2023-07-21T09:23:30.659Z,7.70
2023-07-21T09:26:03.517Z,7.50
2023-07-21T09:28:46.072Z,7.70
2023-07-21T09:31:14.836Z,6.68
2023-07-21T09:33:47.108Z,7.28
2023-07-21T09:36:17.116Z,7.68
2023-07-21T09:38:45.779Z,7.82
2023-07-21T09:41:15.003Z,6.97
2023-07-21T09:43:43.578Z,8.18
2023-07-21T09:48:43.686Z,7.90
2023-07-21T09:51:11.785Z,8.25
2023-07-21T09:53:44.591Z,8.27
2023-07-21T09:56:15.045Z,7.50
2023-07-21T09:58:54.555Z,8.80
2023-07-21T10:01:25.255Z,10.32
2023-07-21T10:03:53.799Z,10.90
2023-07-21T10:06:24.182Z,11.73
2023-07-21T10:08:52.742Z,11.85
2023-07-21T10:11:20.392Z,10.90
2023-07-21T10:13:49.179Z,12.02
2023-07-21T10:16:22.237Z,11.77
2023-07-21T10:19:13.425Z,11.60
2023-07-21T10:21:51.787Z,11.30
2023-07-21T10:24:27.303Z,11.63
2023-07-21T10:27:04.962Z,10.88
2023-07-21T10:29:32.966Z,10.48
2023-07-21T10:32:04.539Z,10.73
2023-07-21T10:34:35.551Z,9.98
2023-07-21T10:37:06.217Z,9.95
2023-07-21T10:39:36.432Z,8.95
2023-07-21T10:42:08.607Z,9.07
2023-07-21T10:44:46.237Z,7.30
2023-07-21T10:47:22.558Z,6.80
2023-07-21T10:49:50.544Z,7.97
2023-07-21T10:52:18.282Z,6.20
2023-07-21T10:54:45.753Z,6.60
2023-07-21T10:57:13.400Z,6.15
2023-07-21T10:59:44.274Z,5.80
2023-07-21T11:02:12.509Z,5.97
2023-07-21T11:04:42.617Z,5.40
2023-07-21T11:07:17.207Z,5.68
2023-07-21T11:09:47.169Z,5.57
2023-07-21T11:12:14.795Z,6.07
2023-07-21T11:14:43.105Z,5.30
2023-07-21T11:17:10.833Z,5.75
2023-07-21T11:19:40.124Z,5.80
2023-07-21T11:22:08.441Z,5.53
2023-07-21T11:24:36.764Z,4.82
2023-07-21T11:27:10.224Z,5.03
2023-07-21T11:29:42.028Z,12.52
2023-07-21T11:32:24.326Z,11.65
2023-07-21T11:35:00.419Z,5.20
2023-07-21T11:37:37.811Z,17.45
2023-07-21T11:40:25.934Z,6.32
2023-07-21T11:42:57.694Z,5.80
2023-07-21T11:45:42.863Z,5.00
2023-07-21T11:48:19.753Z,6.28
2023-07-21T11:50:55.455Z,5.97
2023-07-21T11:53:24.910Z,5.78
2023-07-21T11:55:55.696Z,6.10
2023-07-21T11:58:23.455Z,5.97
2023-07-21T12:00:51.746Z,6.68
2023-07-21T12:03:24.463Z,6.70
2023-07-21T12:05:51.989Z,7.15
2023-07-21T12:08:19.406Z,6.30
2023-07-21T12:10:46.990Z,8.07
2023-07-21T12:13:14.377Z,7.60
2023-07-21T12:15:42.017Z,9.23
2023-07-21T12:18:09.352Z,6.88
2023-07-21T12:20:37.823Z,6.43
2023-07-21T12:23:05.380Z,6.50
2023-07-21T12:25:35.263Z,5.68
2023-07-21T12:30:31.050Z,5.43
2023-07-21T12:32:59.276Z,5.72
2023-07-21T12:35:26.946Z,4.90
2023-07-21T12:37:54.397Z,5.35
2023-07-21T12:40:22.010Z,5.65
2023-07-21T12:42:49.767Z,4.90
2023-07-21T12:45:17.332Z,7.20
2023-07-21T12:47:44.678Z,5.35
2023-07-21T12:50:12.956Z,5.47
2023-07-21T12:52:40.335Z,6.35
2023-07-21T12:55:08.081Z,5.93
2023-07-21T12:57:35.544Z,5.65
2023-07-21T13:00:02.946Z,6.90
2023-07-21T13:02:30.591Z,6.97
2023-07-21T13:04:57.985Z,7.18
2023-07-21T13:07:25.708Z,6.43
2023-07-21T13:09:53.758Z,6.68
2023-07-21T13:12:21.448Z,6.13
2023-07-21T13:14:49.036Z,6.00
2023-07-21T13:17:16.736Z,5.97
2023-07-21T13:19:44.335Z,6.25
2023-07-21T13:22:11.830Z,6.25
2023-07-21T13:24:39.407Z,5.65
2023-07-21T13:27:06.950Z,5.07
2023-07-21T13:29:35.594Z,5.90
2023-07-21T13:32:03.392Z,5.30
2023-07-21T13:34:31.042Z,5.57
2023-07-21T13:36:58.466Z,4.88
2023-07-21T13:39:25.891Z,5.10
2023-07-21T13:41:53.517Z,5.03
2023-07-21T13:44:20.990Z,4.75
2023-07-21T13:46:48.396Z,5.82
2023-07-21T13:49:15.832Z,5.00
2023-07-21T13:51:43.335Z,5.38
2023-07-21T13:54:12.257Z,5.55
2023-07-21T13:56:41.595Z,5.00
2023-07-21T13:59:09.065Z,4.47
2023-07-21T14:01:36.585Z,4.50
2023-07-21T14:04:04.034Z,4.75
2023-07-21T14:06:32.529Z,5.65
2023-07-21T14:09:01.638Z,5.90
2023-07-21T14:11:31.992Z,5.45
2023-07-21T14:14:06.224Z,4.93
2023-07-21T14:16:35.428Z,5.22
2023-07-21T14:19:04.868Z,5.10
2023-07-21T14:24:01.098Z,4.88
2023-07-21T14:26:30.236Z,4.88
2023-07-21T14:28:57.619Z,5.40
2023-07-21T14:31:25.192Z,5.60
2023-07-21T14:33:54.872Z,4.97
2023-07-21T14:36:25.341Z,5.13
2023-07-21T14:38:54.249Z,4.88
2023-07-21T14:41:22.106Z,5.30
2023-07-21T14:43:49.518Z,5.45
2023-07-21T14:46:16.867Z,5.28
2023-07-21T14:48:44.591Z,4.90
2023-07-21T14:51:12.595Z,5.00
2023-07-21T14:53:40.143Z,6.28
2023-07-21T14:56:07.662Z,7.47
2023-07-21T14:58:36.491Z,5.68
2023-07-21T15:01:03.922Z,5.10
2023-07-21T15:03:31.622Z,5.50
2023-07-21T15:05:58.879Z,4.60
2023-07-21T15:08:26.550Z,5.07
2023-07-21T15:10:55.164Z,4.55
2023-07-21T15:13:22.921Z,4.93
2023-07-21T15:18:19.787Z,4.32
2023-07-21T15:20:47.491Z,4.35
2023-07-21T15:23:15.607Z,4.63
2023-07-21T15:25:43.654Z,32.80
2023-07-21T15:28:12.467Z,7.30
2023-07-21T15:30:44.314Z,3.90
2023-07-21T15:33:12.891Z,4.05
2023-07-21T15:35:46.516Z,6.00
2023-07-21T15:38:14.596Z,6.57
2023-07-21T15:40:42.707Z,4.75
2023-07-21T15:43:10.520Z,11.98
2023-07-21T15:45:39.667Z,4.75
2023-07-21T15:48:10.174Z,4.45
2023-07-21T15:50:38.205Z,4.55
2023-07-21T15:53:06.080Z,5.60
2023-07-21T15:55:33.867Z,4.60
2023-07-21T15:58:01.500Z,4.72
2023-07-21T16:00:29.306Z,4.70
2023-07-21T16:02:58.115Z,6.53
2023-07-21T16:05:25.838Z,4.07
2023-07-21T16:07:53.646Z,8.45
2023-07-21T16:10:20.995Z,6.60
2023-07-21T16:12:48.767Z,4.13
2023-07-21T16:15:16.310Z,4.85
2023-07-21T16:17:47.181Z,10.00
2023-07-21T16:20:15.000Z,3.72
2023-07-21T16:22:43.631Z,3.72
2023-07-21T16:25:11.348Z,5.47
2023-07-21T16:27:38.946Z,3.80
2023-07-21T16:30:07.197Z,3.53
2023-07-21T16:32:34.837Z,6.35
2023-07-21T16:35:03.925Z,3.60
2023-07-21T16:40:01.541Z,4.70
2023-07-21T16:42:31.834Z,3.22
2023-07-21T16:45:02.561Z,3.80
2023-07-21T16:47:31.167Z,3.45
2023-07-21T16:49:58.966Z,3.42
2023-07-21T16:52:26.746Z,4.10
2023-07-21T16:54:55.264Z,4.60
2023-07-21T16:57:23.476Z,5.30
2023-07-21T16:59:57.446Z,4.85
2023-07-21T17:02:25.649Z,4.80
2023-07-21T17:04:54.973Z,4.70
2023-07-21T17:07:26.153Z,5.35
2023-07-21T17:09:54.594Z,4.88
2023-07-21T17:12:24.675Z,4.72
2023-07-21T17:14:52.148Z,21.52
2023-07-21T17:17:20.518Z,6.68
2023-07-21T17:19:48.147Z,7.00
2023-07-21T17:22:16.179Z,5.32
2023-07-21T17:24:46.203Z,10.23
2023-07-21T17:29:43.878Z,5.70
2023-07-21T17:32:11.209Z,6.03
2023-07-21T17:34:38.961Z,5.60
2023-07-21T17:37:06.478Z,6.10
2023-07-21T17:39:34.659Z,5.47
2023-07-21T17:42:02.324Z,5.18
2023-07-21T17:44:30.062Z,5.55
2023-07-21T17:46:57.814Z,5.65
2023-07-21T17:49:25.384Z,5.50
2023-07-21T17:51:53.674Z,5.90
2023-07-21T17:54:21.188Z,5.75
2023-07-21T17:56:49.056Z,5.25
2023-07-21T17:59:16.437Z,5.60
2023-07-21T18:01:44.230Z,5.57
2023-07-21T18:04:11.792Z,5.45
2023-07-21T18:06:39.968Z,5.30
2023-07-21T18:09:09.454Z,5.50
2023-07-21T18:11:37.044Z,5.07
2023-07-21T18:14:08.522Z,5.03
2023-07-21T18:16:36.305Z,5.13
2023-07-21T18:19:04.706Z,4.93
2023-07-21T18:21:33.008Z,5.38
2023-07-21T18:24:00.760Z,4.93
2023-07-21T18:26:29.309Z,4.80
2023-07-21T18:28:57.119Z,4.90
2023-07-21T18:31:24.844Z,4.43
2023-07-21T18:33:59.117Z,4.90
2023-07-21T18:36:27.031Z,4.65
2023-07-21T18:38:54.662Z,4.40
2023-07-21T18:41:23.168Z,4.90
2023-07-21T18:43:51.359Z,4.30
2023-07-21T18:46:21.145Z,3.92
2023-07-21T18:48:48.771Z,4.30
2023-07-21T18:51:16.452Z,4.57
2023-07-21T18:53:44.327Z,4.25
2023-07-21T18:56:12.386Z,4.45
2023-07-21T18:58:40.408Z,4.82
2023-07-21T19:01:07.864Z,4.22
2023-07-21T19:03:35.519Z,4.53
2023-07-21T19:06:07.349Z,5.65
2023-07-21T19:08:35.269Z,4.22
2023-07-21T19:11:02.582Z,4.13
2023-07-21T19:13:32.405Z,4.15
2023-07-21T19:16:05.495Z,4.13
2023-07-21T19:18:35.934Z,4.53
2023-07-21T19:21:05.940Z,4.50
2023-07-21T19:23:39.240Z,5.88
2023-07-21T19:26:07.120Z,4.40
2023-07-21T19:28:35.834Z,4.68
2023-07-21T19:31:03.364Z,5.65
2023-07-21T19:33:30.992Z,4.47
2023-07-21T19:35:58.703Z,4.53
2023-07-21T19:38:27.463Z,5.00
2023-07-21T19:40:57.170Z,4.65
2023-07-21T19:43:25.509Z,4.93
2023-07-21T19:45:53.125Z,5.00
2023-07-21T19:48:21.622Z,5.20
2023-07-21T19:50:49.555Z,5.32
2023-07-21T19:53:17.269Z,5.63
2023-07-21T19:55:44.646Z,6.93
2023-07-21T19:58:12.092Z,5.75
2023-07-21T20:00:43.015Z,5.25
2023-07-21T20:03:10.837Z,4.85
2023-07-21T20:05:38.486Z,5.18
2023-07-21T20:08:05.811Z,5.20
2023-07-21T20:10:37.223Z,5.20
2023-07-21T20:13:05.152Z,5.15
2023-07-21T20:15:32.893Z,5.00
2023-07-21T20:18:00.378Z,5.20
2023-07-21T20:20:28.056Z,5.13
2023-07-21T20:22:55.616Z,5.63
2023-07-21T20:25:23.067Z,5.53
2023-07-21T20:27:50.623Z,5.32
2023-07-21T20:30:19.824Z,5.03
2023-07-21T20:32:48.600Z,5.32
2023-07-21T20:35:16.242Z,5.32
2023-07-21T20:37:43.557Z,5.45
2023-07-21T20:40:11.512Z,6.10
2023-07-21T20:42:38.874Z,7.45
2023-07-21T20:45:07.392Z,9.32
2023-07-21T20:47:34.993Z,9.77
2023-07-21T20:50:02.422Z,11.38
2023-07-21T20:52:30.389Z,12.10
2023-07-21T20:54:57.821Z,11.60
2023-07-21T20:57:25.310Z,10.32
2023-07-21T20:59:52.608Z,8.68
2023-07-21T21:02:20.680Z,6.13
2023-07-21T21:04:48.604Z,17.65
2023-07-21T21:07:16.312Z,5.80
2023-07-21T21:09:43.836Z,5.90
2023-07-21T21:12:19.258Z,5.35
2023-07-21T21:14:46.997Z,5.50
2023-07-21T21:17:14.717Z,10.57
2023-07-21T21:19:42.254Z,6.40
2023-07-21T21:22:09.977Z,5.50
2023-07-21T21:24:37.737Z,5.82
2023-07-21T21:27:05.267Z,6.40
2023-07-21T21:29:34.516Z,8.98
2023-07-21T21:32:01.985Z,6.35
2023-07-21T21:34:29.675Z,6.82
2023-07-21T21:36:56.945Z,7.97
2023-07-21T21:39:24.515Z,5.95
2023-07-21T21:41:51.976Z,5.95
2023-07-21T21:44:19.882Z,6.20
2023-07-21T21:46:48.077Z,6.60
2023-07-21T21:49:15.822Z,7.57
2023-07-21T21:51:45.218Z,7.82
2023-07-21T21:54:12.573Z,6.72
2023-07-21T21:56:40.017Z,6.60
2023-07-21T21:59:07.645Z,7.97
2023-07-21T22:01:35.451Z,8.45
2023-07-21T22:04:02.860Z,9.07
2023-07-21T22:06:30.342Z,8.30
2023-07-21T22:08:57.785Z,7.13
2023-07-21T22:11:25.978Z,6.72
2023-07-21T22:13:53.643Z,6.20
2023-07-21T22:16:21.451Z,6.55
2023-07-21T22:18:48.839Z,6.45
2023-07-21T22:21:16.145Z,7.75
2023-07-21T22:23:43.461Z,5.55
2023-07-21T22:26:10.742Z,6.03
2023-07-21T22:28:38.078Z,6.40
2023-07-21T22:31:18.924Z,7.50
2023-07-21T22:33:47.077Z,7.67
2023-07-21T22:36:14.777Z,6.38
2023-07-21T22:38:42.479Z,6.78
2023-07-21T22:41:13.168Z,6.07
2023-07-21T22:43:41.474Z,8.27
2023-07-21T22:46:08.905Z,8.35
2023-07-21T22:48:38.870Z,8.85
2023-07-21T22:51:07.432Z,8.38
2023-07-21T22:53:40.688Z,8.93
2023-07-21T22:56:09.171Z,8.50
2023-07-21T22:58:37.902Z,9.57
2023-07-21T23:01:09.311Z,9.38
2023-07-21T23:03:37.101Z,10.43
2023-07-21T23:06:04.834Z,11.02
2023-07-21T23:08:33.510Z,10.43
2023-07-21T23:11:00.999Z,10.55
2023-07-21T23:13:28.426Z,9.98
2023-07-21T23:15:55.935Z,9.70
2023-07-21T23:18:23.450Z,8.27
2023-07-21T23:20:50.814Z,7.97
2023-07-21T23:23:18.249Z,8.15
2023-07-21T23:25:45.791Z,7.82
2023-07-21T23:28:13.225Z,7.80
2023-07-21T23:30:43.668Z,8.35
2023-07-21T23:33:12.369Z,8.40
2023-07-21T23:35:39.831Z,9.60
2023-07-21T23:38:07.755Z,9.95
2023-07-21T23:40:35.096Z,8.57
2023-07-21T23:43:02.405Z,8.48
2023-07-21T23:45:29.976Z,7.78
2023-07-21T23:47:57.429Z,8.07
2023-07-21T23:50:24.799Z,7.63
2023-07-21T23:52:52.153Z,7.43
2023-07-21T23:55:19.440Z,8.00
2023-07-21T23:57:46.839Z,7.68
